createdAt,value
2022-11-12T19:04:10.869Z,5.70
2022-11-12T19:06:39.069Z,5.60
2022-11-12T19:09:10.178Z,5.40
2022-11-12T19:11:38.430Z,5.30
2022-11-12T19:14:08.893Z,5.20
2022-11-12T19:16:38.292Z,5.20
2022-11-12T19:19:06.422Z,5.70
2022-11-12T19:21:35.907Z,6.10
2022-11-12T19:24:04.097Z,5.10
2022-11-12T19:26:32.245Z,4.90
2022-11-12T19:29:00.427Z,4.80
2022-11-12T19:31:29.130Z,4.80
2022-11-12T19:33:57.522Z,4.90
2022-11-12T19:36:27.126Z,5.00
2022-11-12T19:38:57.865Z,5.50
2022-11-12T19:41:26.518Z,6.80
2022-11-12T19:43:54.836Z,5.40
2022-11-12T19:46:22.864Z,5.30
2022-11-12T19:48:51.807Z,5.30
2022-11-12T19:51:19.973Z,5.20
2022-11-12T19:53:47.934Z,5.10
2022-11-12T19:56:18.786Z,5.10
2022-11-12T19:58:48.318Z,4.90
2022-11-12T20:01:18.377Z,5.50
2022-11-12T20:03:46.890Z,5.00
2022-11-12T20:06:17.735Z,5.10
2022-11-12T20:08:46.267Z,5.20
2022-11-12T20:11:16.112Z,5.30
2022-11-12T20:13:45.543Z,5.30
2022-11-12T20:16:16.122Z,5.40
2022-11-12T20:18:50.814Z,5.50
2022-11-12T20:21:19.164Z,5.50
2022-11-12T20:23:47.352Z,5.60
2022-11-12T20:26:16.909Z,5.80
2022-11-12T20:28:46.534Z,5.70
2022-11-12T20:31:16.873Z,5.90
2022-11-12T20:33:44.871Z,5.90
2022-11-12T20:36:14.354Z,5.80
2022-11-12T20:38:43.757Z,5.40
2022-11-12T20:41:15.063Z,5.00
2022-11-12T20:43:43.557Z,4.80
2022-11-12T20:46:13.934Z,4.70
2022-11-12T20:48:43.837Z,4.80
2022-11-12T20:51:29.218Z,4.70
2022-11-12T20:54:00.295Z,4.60
2022-11-12T20:56:29.914Z,4.70
2022-11-12T20:58:58.516Z,4.50
2022-11-12T21:01:29.193Z,4.70
2022-11-12T21:03:58.447Z,4.80
2022-11-12T21:06:29.088Z,5.10
2022-11-12T21:08:59.545Z,5.00
2022-11-12T21:11:27.610Z,5.10
2022-11-12T21:13:55.592Z,5.20
2022-11-12T21:16:23.609Z,5.20
2022-11-12T21:18:53.042Z,5.20
2022-11-12T21:21:21.115Z,5.10
2022-11-12T21:23:50.800Z,5.00
2022-11-12T21:26:20.625Z,4.70
2022-11-12T21:28:50.172Z,4.50
2022-11-12T21:31:20.293Z,4.30
2022-11-12T21:33:51.763Z,4.20
2022-11-12T21:36:20.405Z,4.30
2022-11-12T21:38:48.846Z,4.30
2022-11-12T21:41:18.262Z,4.20
2022-11-12T21:43:46.817Z,4.20
2022-11-12T21:46:17.862Z,4.30
2022-11-12T21:48:49.015Z,4.50
2022-11-12T21:51:21.772Z,4.70
2022-11-12T21:53:54.646Z,4.80
2022-11-12T21:56:22.582Z,4.80
2022-11-12T21:58:50.553Z,4.90
2022-11-12T22:01:20.819Z,5.00
2022-11-12T22:03:50.403Z,4.80
2022-11-12T22:06:20.572Z,4.70
2022-11-12T22:08:51.754Z,4.50
2022-11-12T22:11:20.076Z,4.60
2022-11-12T22:13:48.140Z,4.60
2022-11-12T22:16:18.452Z,4.60
2022-11-12T22:18:48.629Z,4.50
2022-11-12T22:21:19.072Z,4.70
2022-11-12T22:23:48.617Z,4.50
2022-11-12T22:26:18.468Z,4.30
2022-11-12T22:28:46.409Z,4.20
2022-11-12T22:31:16.093Z,3.80
2022-11-12T22:33:44.380Z,3.60
2022-11-12T22:36:14.428Z,3.60
2022-11-12T22:38:44.043Z,3.70
2022-11-12T22:41:15.240Z,3.70
2022-11-12T22:43:43.869Z,3.90
2022-11-12T22:46:14.014Z,4.10
2022-11-12T22:48:42.266Z,6.00
2022-11-12T22:51:14.103Z,4.60
2022-11-12T22:53:42.362Z,4.70
2022-11-12T22:56:12.129Z,4.30
2022-11-12T22:58:43.123Z,3.90
2022-11-12T23:01:19.038Z,3.70
2022-11-12T23:03:47.068Z,3.40
2022-11-12T23:06:15.176Z,3.30
2022-11-12T23:08:43.488Z,3.10
2022-11-12T23:11:13.382Z,3.20
2022-11-12T23:13:43.114Z,3.20
2022-11-12T23:16:13.208Z,3.20
2022-11-12T23:18:41.359Z,3.20
2022-11-12T23:21:11.221Z,3.30
2022-11-12T23:23:39.614Z,3.40
2022-11-12T23:26:09.912Z,3.50
2022-11-12T23:28:38.098Z,3.40
2022-11-12T23:31:12.238Z,3.40
2022-11-12T23:33:40.620Z,3.40
2022-11-12T23:36:10.573Z,3.50
2022-11-12T23:38:38.653Z,3.60
2022-11-12T23:41:07.386Z,3.80
2022-11-12T23:43:35.361Z,3.90
2022-11-12T23:46:03.350Z,4.10
2022-11-12T23:48:32.799Z,4.20
2022-11-12T23:51:03.449Z,4.30
2022-11-12T23:53:34.748Z,4.40
2022-11-12T23:56:03.226Z,4.20
2022-11-12T23:58:31.662Z,4.10
